AVA8407 SKBO-SKPE
Flight info
| Callsign | AVA8407 |
|---|---|
| Flight time | 0h 37m |
| Altitude | 24000 |
| Route | SOA1A ISNOX ISNOX1E |
| Aircraft | A320/M-SDE3FGHIRWY/LB1 |
Departure
| Time | 2026-04-22 12:44 |
|---|---|
| Airport | El Dorado International Airport (SKBO) |
Arrival
| Time | 2026-04-22 13:21 |
|---|---|
| Airport | Matecaña International Airport (SKPE) |
| Time | Latitude | Longitude | Altitude | Speed | Heading |
|---|---|---|---|---|---|
| 2026-04-22 12:11 | 4.69877 | -74.14451 | 8366 ft | 0 kts | 226° |
| 2026-04-22 12:30 | 4.69881 | -74.14447 | 8366 ft | 4 kts | 226° |
| 2026-04-22 12:31 | 4.69900 | -74.14427 | 8366 ft | 3 kts | 228° |
| 2026-04-22 12:31 | 4.69914 | -74.14410 | 8366 ft | 4 kts | 244° |
| 2026-04-22 12:31 | 4.69919 | -74.14385 | 8366 ft | 4 kts | 284° |
| 2026-04-22 12:31 | 4.69908 | -74.14362 | 8366 ft | 4 kts | 308° |
| 2026-04-22 12:32 | 4.69905 | -74.14359 | 8366 ft | 4 kts | 307° |
| 2026-04-22 12:32 | 4.69937 | -74.14402 | 8366 ft | 2 kts | 307° |
| 2026-04-22 12:32 | 4.69938 | -74.14403 | 8366 ft | 0 kts | 307° |
| 2026-04-22 12:35 | 4.69941 | -74.14406 | 8366 ft | 5 kts | 307° |
| 2026-04-22 12:35 | 4.69992 | -74.14475 | 8366 ft | 16 kts | 307° |
| 2026-04-22 12:35 | 4.70059 | -74.14566 | 8366 ft | 16 kts | 307° |
| 2026-04-22 12:36 | 4.70123 | -74.14637 | 8366 ft | 13 kts | 326° |
| 2026-04-22 12:36 | 4.70158 | -74.14706 | 8366 ft | 12 kts | 239° |
| 2026-04-22 12:36 | 4.70090 | -74.14758 | 8366 ft | 12 kts | 216° |
| 2026-04-22 12:36 | 4.70019 | -74.14810 | 8366 ft | 13 kts | 217° |
| 2026-04-22 12:37 | 4.69947 | -74.14865 | 8366 ft | 13 kts | 216° |
| 2026-04-22 12:37 | 4.69872 | -74.14921 | 8366 ft | 14 kts | 217° |
| 2026-04-22 12:37 | 4.69870 | -74.14998 | 8366 ft | 13 kts | 307° |
| 2026-04-22 12:37 | 4.69928 | -74.15072 | 8366 ft | 14 kts | 307° |
| 2026-04-22 12:38 | 4.69987 | -74.15151 | 8366 ft | 14 kts | 307° |
| 2026-04-22 12:38 | 4.70048 | -74.15233 | 8366 ft | 15 kts | 308° |
| 2026-04-22 12:38 | 4.70112 | -74.15316 | 8365 ft | 16 kts | 307° |
| 2026-04-22 12:38 | 4.70178 | -74.15404 | 8365 ft | 16 kts | 307° |
| 2026-04-22 12:39 | 4.70247 | -74.15496 | 8365 ft | 17 kts | 307° |
| 2026-04-22 12:39 | 4.70391 | -74.15685 | 8365 ft | 18 kts | 307° |
| 2026-04-22 12:39 | 4.70465 | -74.15783 | 8365 ft | 18 kts | 307° |
| 2026-04-22 12:40 | 4.70541 | -74.15883 | 8366 ft | 18 kts | 307° |
| 2026-04-22 12:40 | 4.70618 | -74.15984 | 8366 ft | 18 kts | 307° |
| 2026-04-22 12:40 | 4.70695 | -74.16086 | 8366 ft | 19 kts | 307° |
| 2026-04-22 12:40 | 4.70773 | -74.16190 | 8366 ft | 19 kts | 307° |
| 2026-04-22 12:41 | 4.70854 | -74.16296 | 8366 ft | 19 kts | 307° |
| 2026-04-22 12:41 | 4.70935 | -74.16403 | 8366 ft | 20 kts | 307° |
| 2026-04-22 12:41 | 4.71018 | -74.16513 | 8366 ft | 20 kts | 307° |
| 2026-04-22 12:41 | 4.71101 | -74.16624 | 8366 ft | 20 kts | 306° |
| 2026-04-22 12:42 | 4.71186 | -74.16735 | 8366 ft | 19 kts | 308° |
| 2026-04-22 12:42 | 4.71182 | -74.16809 | 8365 ft | 12 kts | 218° |
| 2026-04-22 12:42 | 4.71110 | -74.16865 | 8363 ft | 14 kts | 217° |
| 2026-04-22 12:42 | 4.71023 | -74.16880 | 8363 ft | 14 kts | 139° |
| 2026-04-22 12:43 | 4.70955 | -74.16790 | 8363 ft | 28 kts | 126° |
| 2026-04-22 12:43 | 4.70685 | -74.16431 | 8365 ft | 98 kts | 127° |
| 2026-04-22 12:43 | 4.70148 | -74.15723 | 8364 ft | 155 kts | 127° |
| 2026-04-22 12:43 | 4.69403 | -74.14737 | 8411 ft | 197 kts | 126° |
| 2026-04-22 12:44 | 4.68597 | -74.13663 | 9274 ft | 188 kts | 133° |
| 2026-04-22 12:44 | 4.67473 | -74.13032 | 9925 ft | 195 kts | 173° |
| 2026-04-22 12:44 | 4.66102 | -74.13343 | 10032 ft | 218 kts | 217° |
| 2026-04-22 12:44 | 4.65049 | -74.14520 | 10211 ft | 237 kts | 237° |
| 2026-04-22 12:45 | 4.64180 | -74.15967 | 10602 ft | 244 kts | 241° |
| 2026-04-22 12:45 | 4.63358 | -74.17464 | 11117 ft | 246 kts | 241° |
| 2026-04-22 12:45 | 4.62520 | -74.18966 | 11630 ft | 248 kts | 240° |
| 2026-04-22 12:45 | 4.61677 | -74.20485 | 12188 ft | 250 kts | 247° |
| 2026-04-22 12:46 | 4.61233 | -74.22210 | 12638 ft | 266 kts | 259° |
| 2026-04-22 12:46 | 4.60888 | -74.24117 | 12855 ft | 290 kts | 259° |
| 2026-04-22 12:46 | 4.60507 | -74.26183 | 13043 ft | 313 kts | 259° |
| 2026-04-22 12:46 | 4.59830 | -74.28337 | 13199 ft | 335 kts | 246° |
| 2026-04-22 12:47 | 4.58815 | -74.30488 | 13644 ft | 347 kts | 243° |
| 2026-04-22 12:47 | 4.57697 | -74.32656 | 14269 ft | 352 kts | 242° |
| 2026-04-22 12:47 | 4.56539 | -74.34832 | 14863 ft | 355 kts | 242° |
| 2026-04-22 12:47 | 4.55371 | -74.37024 | 15426 ft | 358 kts | 242° |
| 2026-04-22 12:48 | 4.54200 | -74.39243 | 16025 ft | 361 kts | 242° |
| 2026-04-22 12:48 | 4.53034 | -74.41487 | 16605 ft | 365 kts | 242° |
| 2026-04-22 12:48 | 4.51869 | -74.43754 | 17207 ft | 368 kts | 242° |
| 2026-04-22 12:48 | 4.50698 | -74.46049 | 17796 ft | 371 kts | 242° |
| 2026-04-22 12:49 | 4.49519 | -74.48364 | 18392 ft | 375 kts | 242° |
| 2026-04-22 12:49 | 4.48327 | -74.50705 | 18857 ft | 378 kts | 242° |
| 2026-04-22 12:49 | 4.47126 | -74.53058 | 19348 ft | 381 kts | 242° |
| 2026-04-22 12:49 | 4.45914 | -74.55429 | 19816 ft | 383 kts | 242° |
| 2026-04-22 12:50 | 4.44693 | -74.57811 | 20297 ft | 386 kts | 242° |
| 2026-04-22 12:50 | 4.43461 | -74.60211 | 20774 ft | 389 kts | 242° |
| 2026-04-22 12:50 | 4.42221 | -74.62629 | 21243 ft | 391 kts | 242° |
| 2026-04-22 12:50 | 4.40975 | -74.65058 | 21668 ft | 394 kts | 242° |
| 2026-04-22 12:51 | 4.39721 | -74.67506 | 22140 ft | 396 kts | 243° |
| 2026-04-22 12:51 | 4.38456 | -74.69976 | 22591 ft | 399 kts | 243° |
| 2026-04-22 12:51 | 4.37183 | -74.72456 | 23047 ft | 401 kts | 243° |
| 2026-04-22 12:51 | 4.35900 | -74.74947 | 23488 ft | 404 kts | 243° |
| 2026-04-22 12:52 | 4.34607 | -74.77454 | 23819 ft | 406 kts | 243° |
| 2026-04-22 12:52 | 4.33324 | -74.79940 | 23913 ft | 405 kts | 243° |
| 2026-04-22 12:52 | 4.32245 | -74.82482 | 23945 ft | 391 kts | 253° |
| 2026-04-22 12:52 | 4.31732 | -74.85138 | 23947 ft | 388 kts | 265° |
| 2026-04-22 12:53 | 4.31794 | -74.87832 | 23949 ft | 387 kts | 277° |
| 2026-04-22 12:53 | 4.32334 | -74.90472 | 23972 ft | 388 kts | 282° |
| 2026-04-22 12:53 | 4.32942 | -74.93105 | 23992 ft | 388 kts | 282° |
| 2026-04-22 12:53 | 4.33550 | -74.95741 | 24015 ft | 388 kts | 282° |
| 2026-04-22 12:54 | 4.34155 | -74.98372 | 24037 ft | 388 kts | 282° |
| 2026-04-22 12:54 | 4.34759 | -75.01005 | 24103 ft | 388 kts | 282° |
| 2026-04-22 12:54 | 4.35361 | -75.03639 | 24094 ft | 388 kts | 282° |
| 2026-04-22 12:54 | 4.35962 | -75.06267 | 24089 ft | 388 kts | 282° |
| 2026-04-22 12:55 | 4.36361 | -75.08014 | 24082 ft | 388 kts | 282° |
| 2026-04-22 12:55 | 4.37167 | -75.11531 | 24080 ft | 387 kts | 282° |
| 2026-04-22 12:55 | 4.37770 | -75.14163 | 24079 ft | 387 kts | 282° |
| 2026-04-22 12:55 | 4.38375 | -75.16793 | 24079 ft | 388 kts | 282° |
| 2026-04-22 12:56 | 4.38979 | -75.19424 | 24079 ft | 388 kts | 282° |
| 2026-04-22 12:56 | 4.39585 | -75.22055 | 24080 ft | 388 kts | 282° |
| 2026-04-22 12:56 | 4.40193 | -75.24697 | 24096 ft | 395 kts | 282° |
| 2026-04-22 12:56 | 4.40818 | -75.27423 | 24110 ft | 405 kts | 282° |
| 2026-04-22 12:57 | 4.41448 | -75.30184 | 24123 ft | 407 kts | 282° |
| 2026-04-22 12:57 | 4.42080 | -75.32950 | 24136 ft | 408 kts | 282° |
| 2026-04-22 12:57 | 4.42713 | -75.35717 | 24180 ft | 408 kts | 282° |
| 2026-04-22 12:57 | 4.43348 | -75.38494 | 24201 ft | 408 kts | 282° |
| 2026-04-22 12:58 | 4.43982 | -75.41267 | 24219 ft | 408 kts | 282° |
| 2026-04-22 12:58 | 4.44616 | -75.44039 | 24240 ft | 409 kts | 282° |
| 2026-04-22 12:58 | 4.45254 | -75.46822 | 24245 ft | 409 kts | 282° |
| 2026-04-22 12:58 | 4.45890 | -75.49596 | 24230 ft | 409 kts | 282° |
| 2026-04-22 12:59 | 4.46524 | -75.52370 | 24211 ft | 409 kts | 282° |
| 2026-04-22 12:59 | 4.47161 | -75.55146 | 24195 ft | 409 kts | 283° |
| 2026-04-22 12:59 | 4.47998 | -75.57864 | 24181 ft | 409 kts | 287° |
| 2026-04-22 12:59 | 4.48892 | -75.60532 | 24168 ft | 409 kts | 288° |
| 2026-04-22 13:00 | 4.50050 | -75.63090 | 24128 ft | 398 kts | 304° |
| 2026-04-22 13:00 | 4.52005 | -75.64970 | 24020 ft | 387 kts | 328° |
| 2026-04-22 13:00 | 4.54494 | -75.65849 | 23904 ft | 377 kts | 353° |
| 2026-04-22 13:00 | 4.57062 | -75.65654 | 23805 ft | 366 kts | 11° |
| 2026-04-22 13:01 | 4.59501 | -75.65057 | 23644 ft | 357 kts | 14° |
| 2026-04-22 13:01 | 4.61871 | -75.64369 | 23314 ft | 352 kts | 16° |
| 2026-04-22 13:01 | 4.64209 | -75.63670 | 22967 ft | 349 kts | 15° |
| 2026-04-22 13:01 | 4.65785 | -75.63212 | 22691 ft | 348 kts | 15° |
| 2026-04-22 13:02 | 4.68957 | -75.62354 | 21484 ft | 366 kts | 11° |
| 2026-04-22 13:02 | 4.70683 | -75.62205 | 20843 ft | 374 kts | 354° |
| 2026-04-22 13:02 | 4.73199 | -75.62932 | 19895 ft | 384 kts | 329° |
| 2026-04-22 13:02 | 4.75235 | -75.64689 | 18944 ft | 394 kts | 305° |
| 2026-04-22 13:03 | 4.76404 | -75.67180 | 17928 ft | 402 kts | 281° |
| 2026-04-22 13:03 | 4.76482 | -75.69985 | 16847 ft | 408 kts | 258° |
| 2026-04-22 13:03 | 4.75455 | -75.72644 | 15783 ft | 415 kts | 239° |
| 2026-04-22 13:03 | 4.73907 | -75.75122 | 14735 ft | 423 kts | 237° |
| 2026-04-22 13:04 | 4.72321 | -75.77634 | 13769 ft | 428 kts | 238° |
| 2026-04-22 13:04 | 4.70745 | -75.80137 | 13189 ft | 420 kts | 239° |
| 2026-04-22 13:04 | 4.69579 | -75.82776 | 12621 ft | 412 kts | 251° |
| 2026-04-22 13:04 | 4.68696 | -75.85485 | 12037 ft | 405 kts | 252° |
| 2026-04-22 13:05 | 4.67853 | -75.88123 | 11445 ft | 400 kts | 252° |
| 2026-04-22 13:05 | 4.67018 | -75.90767 | 10829 ft | 396 kts | 253° |
| 2026-04-22 13:05 | 4.66694 | -75.93474 | 10207 ft | 392 kts | 275° |
| 2026-04-22 13:05 | 4.67478 | -75.96055 | 9518 ft | 388 kts | 299° |
| 2026-04-22 13:06 | 4.69221 | -75.98048 | 8862 ft | 375 kts | 324° |
| 2026-04-22 13:06 | 4.71533 | -75.99047 | 8307 ft | 353 kts | 351° |
| 2026-04-22 13:06 | 4.73871 | -75.98870 | 8031 ft | 328 kts | 20° |
| 2026-04-22 13:06 | 4.75681 | -75.97670 | 7832 ft | 303 kts | 50° |
| 2026-04-22 13:07 | 4.76550 | -75.95858 | 7597 ft | 281 kts | 82° |
| 2026-04-22 13:07 | 4.76709 | -75.93957 | 7352 ft | 263 kts | 87° |
| 2026-04-22 13:07 | 4.76823 | -75.92170 | 7155 ft | 254 kts | 87° |
| 2026-04-22 13:07 | 4.76932 | -75.90459 | 7084 ft | 232 kts | 87° |
| 2026-04-22 13:08 | 4.77030 | -75.88900 | 6994 ft | 217 kts | 87° |
| 2026-04-22 13:08 | 4.77121 | -75.87444 | 6769 ft | 202 kts | 87° |
| 2026-04-22 13:08 | 4.77290 | -75.86122 | 6592 ft | 183 kts | 76° |
| 2026-04-22 13:08 | 4.77636 | -75.84956 | 6367 ft | 167 kts | 72° |
| 2026-04-22 13:09 | 4.77997 | -75.83874 | 6197 ft | 161 kts | 72° |
| 2026-04-22 13:09 | 4.78354 | -75.82815 | 6034 ft | 160 kts | 72° |
| 2026-04-22 13:09 | 4.78706 | -75.81761 | 5832 ft | 159 kts | 72° |
| 2026-04-22 13:09 | 4.79053 | -75.80715 | 5618 ft | 158 kts | 72° |
| 2026-04-22 13:10 | 4.79398 | -75.79678 | 5405 ft | 156 kts | 72° |
| 2026-04-22 13:10 | 4.79747 | -75.78644 | 5174 ft | 156 kts | 71° |
| 2026-04-22 13:10 | 4.80107 | -75.77625 | 4945 ft | 154 kts | 71° |
| 2026-04-22 13:10 | 4.80435 | -75.76600 | 4719 ft | 155 kts | 73° |
| 2026-04-22 13:11 | 4.80761 | -75.75570 | 4527 ft | 155 kts | 70° |
| 2026-04-22 13:11 | 4.81077 | -75.74544 | 4388 ft | 149 kts | 72° |
| 2026-04-22 13:11 | 4.81388 | -75.73641 | 4469 ft | 141 kts | 71° |
| 2026-04-22 13:11 | 4.81731 | -75.72677 | 5147 ft | 148 kts | 68° |
| 2026-04-22 13:12 | 4.82100 | -75.71693 | 5832 ft | 158 kts | 70° |
| 2026-04-22 13:12 | 4.82222 | -75.70537 | 6164 ft | 181 kts | 106° |
| 2026-04-22 13:12 | 4.81431 | -75.69520 | 6368 ft | 197 kts | 155° |
| 2026-04-22 13:12 | 4.80102 | -75.69441 | 6801 ft | 197 kts | 201° |
| 2026-04-22 13:13 | 4.78903 | -75.70114 | 7236 ft | 201 kts | 212° |
| 2026-04-22 13:13 | 4.77674 | -75.70922 | 7417 ft | 222 kts | 213° |
| 2026-04-22 13:13 | 4.76363 | -75.71804 | 7884 ft | 229 kts | 213° |
| 2026-04-22 13:13 | 4.75031 | -75.72701 | 8382 ft | 233 kts | 213° |
| 2026-04-22 13:14 | 4.73814 | -75.73781 | 8839 ft | 236 kts | 237° |
| 2026-04-22 13:14 | 4.73006 | -75.75217 | 9006 ft | 235 kts | 243° |
| 2026-04-22 13:14 | 4.72256 | -75.76664 | 9036 ft | 233 kts | 243° |
| 2026-04-22 13:14 | 4.71518 | -75.78109 | 9039 ft | 233 kts | 243° |
| 2026-04-22 13:15 | 4.70789 | -75.79537 | 9034 ft | 232 kts | 242° |
| 2026-04-22 13:15 | 4.70169 | -75.81019 | 9036 ft | 231 kts | 252° |
| 2026-04-22 13:15 | 4.69684 | -75.82557 | 9036 ft | 231 kts | 252° |
| 2026-04-22 13:15 | 4.69190 | -75.84091 | 9036 ft | 231 kts | 251° |
| 2026-04-22 13:16 | 4.68713 | -75.85615 | 8811 ft | 228 kts | 257° |
| 2026-04-22 13:16 | 4.68714 | -75.87144 | 8626 ft | 212 kts | 284° |
| 2026-04-22 13:16 | 4.69325 | -75.88437 | 8328 ft | 204 kts | 309° |
| 2026-04-22 13:16 | 4.70398 | -75.89301 | 8066 ft | 195 kts | 333° |
| 2026-04-22 13:17 | 4.71723 | -75.89643 | 7788 ft | 200 kts | 358° |
| 2026-04-22 13:17 | 4.73115 | -75.89533 | 7559 ft | 201 kts | 5° |
| 2026-04-22 13:17 | 4.74507 | -75.89377 | 7316 ft | 201 kts | 11° |
| 2026-04-22 13:17 | 4.75754 | -75.88843 | 7081 ft | 194 kts | 36° |
| 2026-04-22 13:18 | 4.76671 | -75.87861 | 6879 ft | 194 kts | 59° |
| 2026-04-22 13:18 | 4.77170 | -75.86606 | 6672 ft | 194 kts | 72° |
| 2026-04-22 13:18 | 4.77579 | -75.85321 | 6449 ft | 192 kts | 72° |
| 2026-04-22 13:18 | 4.77991 | -75.84050 | 6248 ft | 187 kts | 72° |
| 2026-04-22 13:19 | 4.78376 | -75.82869 | 6033 ft | 170 kts | 72° |
| 2026-04-22 13:19 | 4.78733 | -75.81779 | 5826 ft | 161 kts | 72° |
| 2026-04-22 13:19 | 4.79077 | -75.80723 | 5617 ft | 158 kts | 72° |
| 2026-04-22 13:19 | 4.79414 | -75.79682 | 5401 ft | 156 kts | 72° |
| 2026-04-22 13:20 | 4.79750 | -75.78648 | 5189 ft | 156 kts | 72° |
| 2026-04-22 13:20 | 4.80082 | -75.77623 | 4976 ft | 154 kts | 72° |
| 2026-04-22 13:20 | 4.80413 | -75.76604 | 4767 ft | 154 kts | 72° |
| 2026-04-22 13:20 | 4.80760 | -75.75584 | 4550 ft | 154 kts | 71° |
| 2026-04-22 13:21 | 4.81075 | -75.74558 | 4396 ft | 152 kts | 72° |
| 2026-04-22 13:21 | 4.81339 | -75.73741 | 4427 ft | 84 kts | 71° |
| 2026-04-22 13:21 | 4.81425 | -75.73481 | 4429 ft | 13 kts | 69° |
| 2026-04-22 13:21 | 4.81483 | -75.73475 | 4429 ft | 8 kts | 327° |
| 2026-04-22 13:22 | 4.81506 | -75.73513 | 4428 ft | 5 kts | 276° |
| 2026-04-22 13:22 | 4.81503 | -75.73542 | 4428 ft | 3 kts | 257° |
| 2026-04-22 13:22 | 4.81491 | -75.73583 | 4428 ft | 9 kts | 253° |
| 2026-04-22 13:22 | 4.81467 | -75.73656 | 4428 ft | 10 kts | 251° |
| 2026-04-22 13:23 | 4.81464 | -75.73700 | 4427 ft | 4 kts | 335° |
| 2026-04-22 13:23 | 4.81497 | -75.73712 | 4428 ft | 3 kts | 342° |
| 2026-04-22 13:23 | 4.81502 | -75.73713 | 4427 ft | 0 kts | 342° |